M I D A S
Marine Information and Data Acquisition System
Tripno 1511 of the Zeeleeuw from 2008-06-26 07:06:18 to 2008-06-26 14:06:15
Back to CruiseResearch ActivitiesStationsMapUnderway DataData graphs

EquipmentUnitsComment
TimeDGPSUTC
LatitudeDGPSDM.mWGS84
LongitudeDGPSDM.mWGS84
HeadingGyrodeg 
SOGDGPSknotsSpeed over ground
COGDGPSdegCourse over ground
DepthEcho soundermeters200 kHz
Missing or incorrect values are displayed as -999
Navigation data collected by the RV Zeeleeuw from 2008-06-26 07:00:21 to 2008-06-26 14:08:35
                                                                                    Next 1000 lines
Time Latitude Longitude Heading SOG COG Depth
2008-06-26 07:00:32 51°13.623 2°56.044 113.3 0.9 289 8.6
2008-06-26 07:00:36 51°13.624 2°56.042 113.2 1.2 294 8.6
2008-06-26 07:00:42 51°13.625 2°56.039 113.3 1.5 295 8.7
2008-06-26 07:00:46 51°13.626 2°56.036 113.8 1.9 296 8.8
2008-06-26 07:00:52 51°13.628 2°56.03 114.4 2.2 297 8.9
2008-06-26 07:00:57 51°13.629 2°56.025 115.3 2.6 298 -999
2008-06-26 07:01:02 51°13.631 2°56.019 116.1 3 299 -999
2008-06-26 07:01:07 51°13.633 2°56.013 116.2 3.3 298 -999
2008-06-26 07:01:12 51°13.636 2°56.006 116.1 3.5 298 -999
2008-06-26 07:01:17 51°13.638 2°55.998 115.6 3.8 297 -999
2008-06-26 07:01:22 51°13.641 2°55.99 115.3 4 297 -999
2008-06-26 07:01:27 51°13.643 2°55.982 115 4.3 296 -999
2008-06-26 07:01:32 51°13.646 2°55.973 114.6 4.4 296 -999
2008-06-26 07:01:37 51°13.649 2°55.964 114.5 4.6 295 -999
2008-06-26 07:01:42 51°13.652 2°55.954 114.3 4.7 295 -999
2008-06-26 07:01:47 51°13.654 2°55.945 114.3 4.8 295 -999
2008-06-26 07:01:52 51°13.657 2°55.935 114.1 4.9 294 -999
2008-06-26 07:01:56 51°13.659 2°55.927 113.8 4.9 295 -999
2008-06-26 07:02:02 51°13.663 2°55.915 113.3 5 294 -999
2008-06-26 07:02:07 51°13.666 2°55.905 112.7 5 294 -999
2008-06-26 07:02:12 51°13.668 2°55.895 112 5 293 -999
2008-06-26 07:02:17 51°13.671 2°55.885 111.2 5 293 -999
2008-06-26 07:02:22 51°13.673 2°55.875 110.2 4.8 292 -999
2008-06-26 07:02:27 51°13.676 2°55.865 109.1 4.7 291 -999
2008-06-26 07:02:32 51°13.678 2°55.856 107.8 4.5 290 -999
2008-06-26 07:02:37 51°13.68 2°55.848 106.5 4.3 289 -999
2008-06-26 07:02:42 51°13.681 2°55.839 105.1 4.1 288 -999
2008-06-26 07:02:47 51°13.683 2°55.831 103.7 3.9 287 -999
2008-06-26 07:02:52 51°13.684 2°55.823 102.2 3.8 286 -999
2008-06-26 07:02:57 51°13.686 2°55.815 100.6 3.7 285 -999
2008-06-26 07:03:02 51°13.687 2°55.807 99 3.5 284 -999
2008-06-26 07:03:06 51°13.687 2°55.801 97.2 3.4 282 11.2
2008-06-26 07:03:12 51°13.689 2°55.793 96.3 3.2 281 -999
2008-06-26 07:03:17 51°13.689 2°55.786 94.8 3.1 279 -999
2008-06-26 07:03:21 51°13.69 2°55.781 93.4 3 279 12.7
2008-06-26 07:03:27 51°13.69 2°55.774 92.4 2.8 277 12.9
2008-06-26 07:03:31 51°13.691 2°55.769 91.4 2.7 277 13.3
2008-06-26 07:03:37 51°13.691 2°55.763 90.2 2.6 274 13.5
2008-06-26 07:03:41 51°13.691 2°55.758 88.8 2.5 274 13.5
2008-06-26 07:03:47 51°13.691 2°55.752 87.5 2.4 272 13.3
2008-06-26 07:03:52 51°13.691 2°55.747 86.1 2.3 272 13.4
2008-06-26 07:03:56 51°13.691 2°55.743 84.6 2.2 269 14
2008-06-26 07:04:01 51°13.691 2°55.739 83.2 2.1 269 14
2008-06-26 07:04:07 51°13.691 2°55.733 81.8 2 266 14.2
2008-06-26 07:04:12 51°13.691 2°55.729 80.2 1.8 267 14.6
2008-06-26 07:04:16 51°13.691 2°55.727 78.7 1.3 266 14.7
2008-06-26 07:04:22 51°13.691 2°55.726 76.8 0.6 281 14.4
2008-06-26 07:04:27 51°13.692 2°55.726 73.2 0.4 14 14.2
2008-06-26 07:04:32 51°13.692 2°55.727 67.7 0.6 34 14.1
2008-06-26 07:04:36 51°13.693 2°55.728 60.7 0.9 38 14
2008-06-26 07:04:41 51°13.694 2°55.729 54.4 1.1 42 14.2
2008-06-26 07:04:47 51°13.696 2°55.731 48.6 1.2 40 14.2
2008-06-26 07:04:52 51°13.697 2°55.733 43.3 1.4 34 14.3
2008-06-26 07:04:56 51°13.699 2°55.735 38.1 1.6 29 14.4
2008-06-26 07:05:01 51°13.701 2°55.736 33.2 1.7 26 14.5
2008-06-26 07:05:06 51°13.704 2°55.738 27 1.9 19 14.2
2008-06-26 07:05:12 51°13.707 2°55.739 19.9 2 16 -999
2008-06-26 07:05:17 51°13.71 2°55.74 15.7 2.1 10 -999
2008-06-26 07:05:21 51°13.712 2°55.74 9.6 2.2 7 13.9
2008-06-26 07:05:27 51°13.716 2°55.74 4.5 2.4 1 -999
2008-06-26 07:05:32 51°13.72 2°55.74 358.1 2.6 356 -999
2008-06-26 07:05:36 51°13.723 2°55.739 353.6 2.9 348 13.9
2008-06-26 07:05:41 51°13.727 2°55.737 348.6 3.4 344 13.4
2008-06-26 07:05:46 51°13.732 2°55.733 344.2 3.9 335 13.3
2008-06-26 07:05:52 51°13.739 2°55.728 335.2 4.4 332 13.2
2008-06-26 07:05:57 51°13.745 2°55.722 330.5 4.8 329 13.5
2008-06-26 07:06:01 51°13.749 2°55.717 327.8 5.3 327 12.9
2008-06-26 07:06:07 51°13.758 2°55.708 326.6 5.8 326 12.9
2008-06-26 07:06:12 51°13.765 2°55.7 326.3 6.4 327 -999
2008-06-26 07:06:17 51°13.773 2°55.692 326.4 7 326 -999
2008-06-26 07:06:22 51°13.782 2°55.683 327 7.6 328 12.5
2008-06-26 07:06:27 51°13.792 2°55.673 328.3 8.1 328 12
2008-06-26 07:06:32 51°13.802 2°55.664 329.9 8.3 331 12.3
2008-06-26 07:06:36 51°13.81 2°55.657 331.6 8.5 331 12.5
2008-06-26 07:06:41 51°13.821 2°55.648 331.7 8.6 331 12.3
2008-06-26 07:06:47 51°13.833 2°55.637 331.7 8.7 331 12.3
2008-06-26 07:06:52 51°13.844 2°55.627 332.1 8.8 332 12.6
2008-06-26 07:06:56 51°13.853 2°55.62 332.8 8.9 332 -999
2008-06-26 07:07:02 51°13.866 2°55.609 333.2 8.9 333 13.1
2008-06-26 07:07:07 51°13.877 2°55.6 333.2 9 332 12.6
2008-06-26 07:07:12 51°13.889 2°55.591 333 9 334 12.6
2008-06-26 07:07:17 51°13.9 2°55.582 333.7 9.1 333 12.6
2008-06-26 07:07:21 51°13.909 2°55.575 334.1 9.1 334 12.6
2008-06-26 07:07:27 51°13.923 2°55.564 334.5 9.2 334 12.5
2008-06-26 07:07:32 51°13.934 2°55.556 334.7 9.2 334 12.5
2008-06-26 07:07:36 51°13.943 2°55.549 335.4 9.2 335 12.5
2008-06-26 07:07:42 51°13.957 2°55.538 335.9 9.2 334 12.5
2008-06-26 07:07:46 51°13.966 2°55.531 335.6 9.2 334 12.5
2008-06-26 07:07:52 51°13.98 2°55.521 335.5 9.2 334 12.5
2008-06-26 07:07:56 51°13.989 2°55.514 335.7 9.2 335 12.5
2008-06-26 07:08:01 51°14.001 2°55.505 336.1 9.2 334 12.5
2008-06-26 07:08:07 51°14.015 2°55.494 335.8 9.2 334 -999
2008-06-26 07:08:12 51°14.026 2°55.485 335 9.2 334 12.5
2008-06-26 07:08:17 51°14.037 2°55.476 334.7 9.2 334 12.5
2008-06-26 07:08:21 51°14.046 2°55.469 334.7 9.1 334 12.5
2008-06-26 07:08:27 51°14.06 2°55.459 335.4 9.2 336 12.5
2008-06-26 07:08:32 51°14.072 2°55.45 336.2 9.2 334 12.5
2008-06-26 07:08:36 51°14.081 2°55.443 335.5 9.2 334 12.5
2008-06-26 07:08:41 51°14.092 2°55.434 335.4 9.2 334 12.4
2008-06-26 07:08:47 51°14.106 2°55.424 335.8 9.2 335 12.4
2008-06-26 07:08:52 51°14.118 2°55.415 336 9.2 333 12.4
2008-06-26 07:08:56 51°14.127 2°55.407 335 9.2 333 -999
2008-06-26 07:09:01 51°14.138 2°55.398 334.1 9.2 333 -999
2008-06-26 07:09:07 51°14.151 2°55.386 333.8 9.2 332 -999
2008-06-26 07:09:12 51°14.163 2°55.376 333.2 9.2 331 12.5
2008-06-26 07:09:16 51°14.171 2°55.368 332.4 9.2 329 -999
2008-06-26 07:09:21 51°14.182 2°55.357 331.1 9.2 328 12.5
2008-06-26 07:09:27 51°14.195 2°55.343 329 9.2 325 12.5
2008-06-26 07:09:32 51°14.205 2°55.331 327 9.2 324 12.5
2008-06-26 07:09:36 51°14.213 2°55.321 325.7 9.2 323 12.6
2008-06-26 07:09:41 51°14.223 2°55.308 324.1 9.2 321 12.6
2008-06-26 07:09:46 51°14.233 2°55.296 322.6 9.2 321 12.5
2008-06-26 07:09:52 51°14.245 2°55.28 321.8 9.3 319 12.8
2008-06-26 07:09:56 51°14.252 2°55.269 320.5 9.3 318 12.5
2008-06-26 07:10:01 51°14.262 2°55.254 318.7 9.3 316 12.5
2008-06-26 07:10:06 51°14.271 2°55.239 316.9 9.4 314 12.2
2008-06-26 07:10:12 51°14.282 2°55.22 315.2 9.5 312 12.3
2008-06-26 07:10:16 51°14.289 2°55.207 313.4 9.7 311 12.4
2008-06-26 07:10:21 51°14.297 2°55.19 311.2 9.9 308 12.2
2008-06-26 07:10:26 51°14.306 2°55.173 309.4 10 308 12
2008-06-26 07:10:32 51°14.316 2°55.151 308.9 10.1 307 11.8
2008-06-26 07:10:36 51°14.322 2°55.137 308.2 10.3 307 12.3
2008-06-26 07:10:41 51°14.331 2°55.118 307.8 10.4 306 12.1
2008-06-26 07:10:47 51°14.342 2°55.096 307.6 10.5 307 12.6
2008-06-26 07:10:52 51°14.351 2°55.077 308.1 10.7 308 12.8
2008-06-26 07:10:56 51°14.359 2°55.062 309.1 10.9 310 12.9
2008-06-26 07:11:01 51°14.368 2°55.044 310 11.1 310 13
2008-06-26 07:11:07 51°14.38 2°55.02 310.3 11.3 310 12.8
2008-06-26 07:11:12 51°14.391 2°55.001 310.2 11.6 310 12.1
2008-06-26 07:11:16 51°14.399 2°54.985 310.4 11.7 309 12.2
2008-06-26 07:11:22 51°14.411 2°54.96 309.8 11.8 308 12.1
2008-06-26 07:11:27 51°14.422 2°54.939 308.4 12 308 12.4
2008-06-26 07:11:32 51°14.432 2°54.918 308.1 12.1 308 12.6
2008-06-26 07:11:36 51°14.44 2°54.901 308.1 12.1 308 12.4
2008-06-26 07:11:41 51°14.451 2°54.88 307.8 12.2 309 12.4
2008-06-26 07:11:47 51°14.464 2°54.855 307.9 12.2 310 12.4
2008-06-26 07:11:52 51°14.475 2°54.835 308.7 12.2 312 12.2
2008-06-26 07:11:56 51°14.484 2°54.819 309.8 12.2 312 12.2
2008-06-26 07:12:01 51°14.496 2°54.799 310.3 12.1 313 12.2
2008-06-26 07:12:06 51°14.507 2°54.78 310.9 12.1 313 12.3
2008-06-26 07:12:12 51°14.52 2°54.756 310.6 12.1 312 12
2008-06-26 07:12:16 51°14.529 2°54.74 310.2 12 312 11.9
2008-06-26 07:12:21 51°14.54 2°54.72 309.6 12 310 11.9
2008-06-26 07:12:26 51°14.55 2°54.699 307.3 11.8 305 11.7
2008-06-26 07:12:31 51°14.558 2°54.677 303 11.7 302 11.8
2008-06-26 07:12:36 51°14.567 2°54.654 299.7 11.7 301 11.8
2008-06-26 07:12:41 51°14.575 2°54.632 298.7 11.7 301 11.8
2008-06-26 07:12:47 51°14.585 2°54.606 298.8 11.7 301 11.7
2008-06-26 07:12:52 51°14.593 2°54.583 298.9 11.7 300 11.7
2008-06-26 07:12:56 51°14.599 2°54.565 298.1 11.7 300 11.7
2008-06-26 07:13:01 51°14.607 2°54.543 297.5 11.7 299 11.7
2008-06-26 07:13:07 51°14.616 2°54.515 296.9 11.7 298 11.7
2008-06-26 07:13:12 51°14.624 2°54.492 296.6 11.7 297 11.8
2008-06-26 07:13:16 51°14.63 2°54.474 295.9 11.8 298 11.9
2008-06-26 07:13:21 51°14.637 2°54.45 295.9 11.8 298 11.8
2008-06-26 07:13:27 51°14.647 2°54.423 295.9 11.8 298 11.8
2008-06-26 07:13:32 51°14.655 2°54.4 295.9 11.8 298 11.8
2008-06-26 07:13:36 51°14.661 2°54.381 296.2 11.8 299 11.9
2008-06-26 07:13:42 51°14.67 2°54.354 296.8 11.9 299 11.9
2008-06-26 07:13:47 51°14.679 2°54.331 296.9 11.9 299 11.8
2008-06-26 07:13:52 51°14.687 2°54.308 296.9 11.8 300 11.9
2008-06-26 07:13:56 51°14.693 2°54.29 297.3 11.8 299 11.9
2008-06-26 07:14:01 51°14.701 2°54.267 297.3 11.8 299 11.8
2008-06-26 07:14:07 51°14.71 2°54.24 297.2 11.8 299 11.8
2008-06-26 07:14:12 51°14.718 2°54.217 297.1 11.8 299 11.8
2008-06-26 07:14:16 51°14.725 2°54.199 297.2 11.8 300 11.8
2008-06-26 07:14:21 51°14.733 2°54.176 297.5 11.8 299 11.8
2008-06-26 07:14:26 51°14.741 2°54.154 297.5 11.8 301 11.6
2008-06-26 07:14:32 51°14.751 2°54.127 297.8 11.8 301 11.5
2008-06-26 07:14:36 51°14.758 2°54.109 298.2 11.8 301 11.5
2008-06-26 07:14:41 51°14.766 2°54.086 298 11.7 301 11.4
2008-06-26 07:14:46 51°14.774 2°54.064 297.8 11.8 301 11.4
2008-06-26 07:14:52 51°14.784 2°54.037 297.5 11.7 300 11.3
2008-06-26 07:14:57 51°14.792 2°54.014 297.6 11.8 300 11.3
2008-06-26 07:15:01 51°14.799 2°53.996 297.5 11.8 300 11.3
2008-06-26 07:15:07 51°14.808 2°53.969 297.3 11.8 300 11.1
2008-06-26 07:15:12 51°14.817 2°53.947 297.3 11.8 299 11.1
2008-06-26 07:15:16 51°14.823 2°53.928 297.5 11.8 299 11.1
2008-06-26 07:15:21 51°14.83 2°53.905 297.2 11.8 298 11.1
2008-06-26 07:15:27 51°14.839 2°53.877 296.8 11.8 297 11.1
2008-06-26 07:15:32 51°14.847 2°53.854 296 11.8 298 11.1
2008-06-26 07:15:36 51°14.853 2°53.836 296 11.8 297 11.2
2008-06-26 07:15:42 51°14.862 2°53.808 296 11.8 297 11.1
2008-06-26 07:15:47 51°14.869 2°53.784 295.8 11.8 297 11
2008-06-26 07:15:52 51°14.877 2°53.761 295.8 11.9 297 11.1
2008-06-26 07:15:56 51°14.883 2°53.742 295.8 11.9 297 11.2
2008-06-26 07:16:01 51°14.89 2°53.719 296 11.9 297 11.2
2008-06-26 07:16:07 51°14.899 2°53.691 296 11.9 297 10.9
2008-06-26 07:16:12 51°14.907 2°53.668 296.1 11.9 297 11.2
2008-06-26 07:16:16 51°14.913 2°53.649 296.2 11.9 298 11.2
2008-06-26 07:16:21 51°14.921 2°53.626 296.1 11.9 297 11.2
2008-06-26 07:16:26 51°14.928 2°53.603 296 11.9 298 11.2
2008-06-26 07:16:32 51°14.937 2°53.574 296 11.9 298 11.1
2008-06-26 07:16:36 51°14.943 2°53.556 296.1 11.9 298 11.1
2008-06-26 07:16:41 51°14.951 2°53.533 296.3 11.8 297 11.2
2008-06-26 07:16:46 51°14.958 2°53.51 296.3 11.8 297 11.2
2008-06-26 07:16:52 51°14.967 2°53.481 296.1 11.8 297 11.3
2008-06-26 07:16:56 51°14.974 2°53.463 296.5 11.8 299 11.3
2008-06-26 07:17:01 51°14.982 2°53.441 297.5 11.9 299 11.5
2008-06-26 07:17:07 51°14.992 2°53.413 298.2 11.9 300 11.5
2008-06-26 07:17:12 51°15 2°53.391 298.9 11.9 300 11.4
2008-06-26 07:17:17 51°15.008 2°53.368 299.7 11.9 300 11.4
2008-06-26 07:17:21 51°15.015 2°53.35 299.7 11.9 300 11.3
2008-06-26 07:17:27 51°15.025 2°53.322 299.8 11.9 300 11.4
2008-06-26 07:17:32 51°15.033 2°53.3 299.8 11.9 300 11.4
2008-06-26 07:17:36 51°15.039 2°53.281 299.9 11.9 300 11.5
2008-06-26 07:17:42 51°15.049 2°53.253 299.6 12 298 11.3
2008-06-26 07:17:47 51°15.057 2°53.23 298.4 12 298 11.5
2008-06-26 07:17:52 51°15.065 2°53.207 297.9 12 298 11.6
2008-06-26 07:17:56 51°15.071 2°53.188 297.3 12 298 11.6
2008-06-26 07:18:02 51°15.08 2°53.16 297.2 12 298 11.6
2008-06-26 07:18:07 51°15.088 2°53.136 297.1 12 297 11.8
2008-06-26 07:18:12 51°15.095 2°53.113 296.6 11.9 297 11.6
2008-06-26 07:18:16 51°15.101 2°53.094 296 12 297 11.9
2008-06-26 07:18:21 51°15.109 2°53.07 295.9 12 297 11.8
2008-06-26 07:18:27 51°15.118 2°53.042 296 12 297 11.5
2008-06-26 07:18:32 51°15.125 2°53.019 295.9 11.9 296 11.7
2008-06-26 07:18:36 51°15.131 2°53 295.2 11.9 296 11.8
2008-06-26 07:18:41 51°15.138 2°52.976 294.7 11.9 296 11.8
2008-06-26 07:18:47 51°15.147 2°52.947 294.4 11.9 295 11.8
2008-06-26 07:18:52 51°15.154 2°52.924 293.9 11.9 295 12
2008-06-26 07:18:56 51°15.159 2°52.905 294.1 11.9 296 11.9
2008-06-26 07:19:01 51°15.166 2°52.881 294.6 11.8 294 11.9
2008-06-26 07:19:06 51°15.173 2°52.857 294.2 11.9 296 12.1
2008-06-26 07:19:12 51°15.182 2°52.829 294.7 11.9 295 12.1
2008-06-26 07:19:16 51°15.187 2°52.81 294.8 11.9 295 12
2008-06-26 07:19:21 51°15.194 2°52.786 294.6 11.8 294 12.1
2008-06-26 07:19:26 51°15.201 2°52.762 294 11.8 295 12.2
2008-06-26 07:19:31 51°15.208 2°52.739 293.8 11.8 295 12.1
2008-06-26 07:19:36 51°15.215 2°52.715 294 11.8 296 12.2
2008-06-26 07:19:41 51°15.222 2°52.691 294.4 11.8 296 12.1
2008-06-26 07:19:46 51°15.229 2°52.668 294.8 11.9 296 12.3
2008-06-26 07:19:51 51°15.237 2°52.644 294.8 11.9 295 12.3
2008-06-26 07:19:56 51°15.244 2°52.62 294.5 11.9 295 12.3
2008-06-26 07:20:01 51°15.251 2°52.597 294.3 11.9 295 12.3
2008-06-26 07:20:06 51°15.258 2°52.573 294.4 11.9 296 12.3
2008-06-26 07:20:11 51°15.265 2°52.549 294.6 11.9 295 12.4
2008-06-26 07:20:16 51°15.272 2°52.526 294.6 11.9 295 12.5
2008-06-26 07:20:21 51°15.279 2°52.502 294.7 11.9 293 12.3
2008-06-26 07:20:26 51°15.284 2°52.477 292.6 11.8 290 12.4
2008-06-26 07:20:31 51°15.29 2°52.453 290 11.8 289 12.4
2008-06-26 07:20:36 51°15.294 2°52.428 288.1 11.8 287 12.5
2008-06-26 07:20:41 51°15.299 2°52.403 286.7 11.8 287 12.6
2008-06-26 07:20:46 51°15.303 2°52.378 285.6 11.7 285 12.6
2008-06-26 07:20:51 51°15.308 2°52.353 284.2 11.7 284 12.6
2008-06-26 07:20:56 51°15.312 2°52.327 283.3 11.8 284 12.7
2008-06-26 07:21:01 51°15.315 2°52.302 283 11.7 283 12.7
2008-06-26 07:21:07 51°15.32 2°52.272 282.5 11.7 284 12.7
2008-06-26 07:21:11 51°15.324 2°52.251 282.2 11.7 283 12.8
2008-06-26 07:21:16 51°15.327 2°52.226 281.8 11.7 283 12.8
2008-06-26 07:21:21 51°15.331 2°52.2 281.5 11.7 283 12.9
2008-06-26 07:21:26 51°15.335 2°52.174 281.4 11.7 283 12.9
2008-06-26 07:21:31 51°15.339 2°52.149 281.5 11.7 283 13
2008-06-26 07:21:36 51°15.343 2°52.124 281.6 11.7 284 13
2008-06-26 07:21:41 51°15.347 2°52.098 282.4 11.8 285 13.1
2008-06-26 07:21:46 51°15.351 2°52.073 283.1 11.7 285 13.1
2008-06-26 07:21:51 51°15.355 2°52.048 283.7 11.8 287 13.2
2008-06-26 07:21:56 51°15.36 2°52.023 284.5 11.8 286 13.2
2008-06-26 07:22:01 51°15.364 2°51.998 285 11.8 287 13.2
2008-06-26 07:22:06 51°15.369 2°51.973 285.3 11.8 287 13.3
2008-06-26 07:22:11 51°15.374 2°51.948 285.5 11.8 287 13.2
2008-06-26 07:22:16 51°15.378 2°51.924 285.6 11.9 286 13.3
2008-06-26 07:22:21 51°15.383 2°51.899 285 11.8 287 13.3
2008-06-26 07:22:26 51°15.388 2°51.874 284.8 11.8 287 13.4
2008-06-26 07:22:31 51°15.392 2°51.849 284.8 11.8 286 13.4
2008-06-26 07:22:36 51°15.397 2°51.824 284.5 11.8 286 13.4
2008-06-26 07:22:41 51°15.401 2°51.799 284.4 11.8 286 13.4
2008-06-26 07:22:47 51°15.406 2°51.769 284.4 11.7 286 13.5
2008-06-26 07:22:51 51°15.41 2°51.749 284.5 11.7 283 13.5
2008-06-26 07:22:56 51°15.412 2°51.723 282.6 11.7 280 13.5
2008-06-26 07:23:01 51°15.415 2°51.698 280.1 11.7 279 13.5
2008-06-26 07:23:06 51°15.417 2°51.672 278.1 11.7 278 13.6
2008-06-26 07:23:11 51°15.419 2°51.647 277 11.6 276 13.6
2008-06-26 07:23:16 51°15.421 2°51.621 275.8 11.7 276 13.6
2008-06-26 07:23:21 51°15.422 2°51.595 274.8 11.7 274 13.6
2008-06-26 07:23:26 51°15.423 2°51.569 273.6 11.7 274 13.6
2008-06-26 07:23:31 51°15.425 2°51.543 272.8 11.7 274 13.7
2008-06-26 07:23:36 51°15.426 2°51.518 272.7 11.7 274 13.7
2008-06-26 07:23:41 51°15.427 2°51.492 272.8 11.7 274 13.7
2008-06-26 07:23:46 51°15.428 2°51.466 272.7 11.7 274 13.7
2008-06-26 07:23:51 51°15.429 2°51.44 272.5 11.8 274 13.8
2008-06-26 07:23:56 51°15.431 2°51.414 273 11.7 276 13.8
2008-06-26 07:24:01 51°15.432 2°51.388 273.7 11.8 274 13.7
2008-06-26 07:24:06 51°15.433 2°51.363 273.7 11.8 275 13.8
2008-06-26 07:24:11 51°15.435 2°51.337 273.5 11.8 275 13.8
2008-06-26 07:24:16 51°15.436 2°51.311 273.9 11.8 276 13.9
2008-06-26 07:24:21 51°15.438 2°51.285 274.3 11.7 276 13.8
2008-06-26 07:24:26 51°15.439 2°51.259 274.6 11.8 275 14
2008-06-26 07:24:31 51°15.441 2°51.233 274.4 11.8 275 13.8
2008-06-26 07:24:36 51°15.442 2°51.207 274.3 11.7 274 13.8
2008-06-26 07:24:41 51°15.443 2°51.182 273.7 11.7 273 13.9
2008-06-26 07:24:46 51°15.443 2°51.156 272.1 11.7 270 14
2008-06-26 07:24:51 51°15.443 2°51.13 270.3 11.6 269 13.9
2008-06-26 07:24:56 51°15.442 2°51.105 267.9 11.6 267 14
2008-06-26 07:25:01 51°15.441 2°51.079 266.2 11.6 266 14
2008-06-26 07:25:06 51°15.439 2°51.053 265.1 11.6 265 13.9
2008-06-26 07:25:11 51°15.438 2°51.028 264.2 11.6 264 13.9
2008-06-26 07:25:16 51°15.436 2°51.002 263.4 11.7 264 14
2008-06-26 07:25:21 51°15.434 2°50.977 262.9 11.6 264 13.9
2008-06-26 07:25:26 51°15.433 2°50.951 263.2 11.7 265 14.1
2008-06-26 07:25:31 51°15.431 2°50.925 263.7 11.7 266 14
2008-06-26 07:25:36 51°15.43 2°50.9 264.2 11.7 265 14.1
2008-06-26 07:25:41 51°15.429 2°50.874 264.2 11.7 266 14
2008-06-26 07:25:47 51°15.428 2°50.843 264.5 11.7 267 14.1
2008-06-26 07:25:51 51°15.427 2°50.822 265.5 11.7 268 14.1
2008-06-26 07:25:56 51°15.427 2°50.796 266.3 11.7 267 14
2008-06-26 07:26:01 51°15.426 2°50.771 266.6 11.7 268 14
2008-06-26 07:26:06 51°15.426 2°50.745 266.8 11.7 267 14.1
2008-06-26 07:26:11 51°15.425 2°50.719 266.7 11.7 268 14.1
2008-06-26 07:26:16 51°15.424 2°50.693 267 11.7 268 14.1
2008-06-26 07:26:21 51°15.424 2°50.667 267 11.7 268 14.2
2008-06-26 07:26:26 51°15.423 2°50.642 267.2 11.7 269 14.1
2008-06-26 07:26:31 51°15.423 2°50.616 267.3 11.7 269 14.2
2008-06-26 07:26:36 51°15.423 2°50.59 267.7 11.7 270 14.2
2008-06-26 07:26:41 51°15.423 2°50.564 268.2 11.7 270 14.1
2008-06-26 07:26:46 51°15.423 2°50.538 268.6 11.7 270 14.1
2008-06-26 07:26:51 51°15.423 2°50.512 269 11.7 269 14.2
2008-06-26 07:26:56 51°15.422 2°50.487 268.5 11.7 269 14.3
2008-06-26 07:27:01 51°15.422 2°50.461 267.9 11.7 269 14.2
2008-06-26 07:27:06 51°15.422 2°50.435 267.8 11.7 270 14.2
2008-06-26 07:27:11 51°15.422 2°50.409 268.5 11.7 269 14.2
2008-06-26 07:27:16 51°15.422 2°50.383 268.5 11.7 269 14.3
2008-06-26 07:27:21 51°15.421 2°50.357 268.4 11.7 268 14.2
2008-06-26 07:27:26 51°15.421 2°50.332 267.8 11.7 269 14.1
2008-06-26 07:27:31 51°15.421 2°50.306 268.1 11.6 269 14.1
2008-06-26 07:27:36 51°15.421 2°50.28 268.2 11.6 270 14.2
2008-06-26 07:27:41 51°15.421 2°50.254 268.7 11.7 269 14.4
2008-06-26 07:27:46 51°15.421 2°50.229 268.6 11.7 270 14
2008-06-26 07:27:51 51°15.42 2°50.202 269.1 11.8 269 14.1
2008-06-26 07:27:56 51°15.421 2°50.177 269.1 11.7 271 14.2
2008-06-26 07:28:01 51°15.42 2°50.151 269.2 11.7 270 14.4
2008-06-26 07:28:06 51°15.42 2°50.125 269 11.7 269 14
2008-06-26 07:28:11 51°15.42 2°50.099 268.5 11.7 270 14.1
2008-06-26 07:28:16 51°15.42 2°50.073 268.4 11.7 270 14.1
2008-06-26 07:28:21 51°15.42 2°50.047 268.5 11.7 270 14.2
2008-06-26 07:28:26 51°15.42 2°50.021 268.8 11.7 270 14.2
2008-06-26 07:28:31 51°15.42 2°49.996 268.9 11.7 270 14.2
2008-06-26 07:28:36 51°15.42 2°49.97 269.1 11.6 269 14.1
2008-06-26 07:28:41 51°15.42 2°49.944 268.8 11.6 271 14.1
2008-06-26 07:28:46 51°15.42 2°49.919 269.2 11.5 270 14.2
2008-06-26 07:28:51 51°15.42 2°49.893 269.2 11.6 270 14.3
2008-06-26 07:28:56 51°15.421 2°49.868 269.4 11.5 272 14.3
2008-06-26 07:29:01 51°15.422 2°49.842 270.6 11.6 272 14.3
2008-06-26 07:29:06 51°15.423 2°49.817 271.2 11.6 274 14.3
2008-06-26 07:29:11 51°15.423 2°49.791 271.9 11.6 272 14.3
2008-06-26 07:29:16 51°15.425 2°49.766 272.3 11.6 274 14.3
2008-06-26 07:29:21 51°15.426 2°49.74 272.7 11.6 273 14.3
2008-06-26 07:29:26 51°15.426 2°49.714 272.8 11.6 273 14.4
2008-06-26 07:29:31 51°15.427 2°49.689 272.2 11.6 271 14.3
2008-06-26 07:29:36 51°15.427 2°49.663 271.1 11.6 271 14.2
2008-06-26 07:29:41 51°15.427 2°49.637 270.2 11.6 270 14.2
2008-06-26 07:29:46 51°15.427 2°49.612 269.6 11.6 271 14.3
2008-06-26 07:29:51 51°15.427 2°49.586 269.5 11.6 270 14.3
2008-06-26 07:29:56 51°15.427 2°49.56 269.2 11.6 270 14.3
2008-06-26 07:30:01 51°15.427 2°49.535 269.3 11.6 269 14.3
2008-06-26 07:30:06 51°15.427 2°49.509 269 11.7 270 14.4
2008-06-26 07:30:11 51°15.427 2°49.483 268.8 11.6 269 14.3
2008-06-26 07:30:16 51°15.427 2°49.458 268.9 11.6 269 14.4
2008-06-26 07:30:21 51°15.426 2°49.432 268.9 11.6 269 14.3
2008-06-26 07:30:26 51°15.426 2°49.406 268.2 11.7 270 14.3
2008-06-26 07:30:31 51°15.426 2°49.38 268.5 11.6 269 14.4
2008-06-26 07:30:36 51°15.426 2°49.355 268.5 11.7 269 14.5
2008-06-26 07:30:41 51°15.425 2°49.329 268.5 11.7 269 14.4
2008-06-26 07:30:46 51°15.425 2°49.303 268.1 11.7 269 14.4
2008-06-26 07:30:51 51°15.425 2°49.277 268.5 11.7 269 14.3
2008-06-26 07:30:56 51°15.425 2°49.251 268.6 11.7 269 14.4
2008-06-26 07:31:01 51°15.424 2°49.225 268.7 11.7 268 14.4
2008-06-26 07:31:06 51°15.424 2°49.2 268.1 11.7 269 14.3
2008-06-26 07:31:11 51°15.424 2°49.174 268.4 11.7 269 14.3
2008-06-26 07:31:16 51°15.424 2°49.148 268.4 11.7 270 14.3
2008-06-26 07:31:21 51°15.424 2°49.122 268.5 11.7 270 14.3
2008-06-26 07:31:26 51°15.424 2°49.096 268.8 11.7 270 14.2
2008-06-26 07:31:31 51°15.424 2°49.07 268.7 11.7 271 14.1
2008-06-26 07:31:36 51°15.424 2°49.044 268.8 11.7 270 14.1
2008-06-26 07:31:41 51°15.424 2°49.018 268.7 11.8 270 14.2
2008-06-26 07:31:46 51°15.425 2°48.992 268.8 11.7 272 14.1
2008-06-26 07:31:51 51°15.425 2°48.966 269.5 11.8 272 14
2008-06-26 07:31:56 51°15.426 2°48.94 270.6 11.8 272 13.9
2008-06-26 07:32:01 51°15.427 2°48.914 270.6 11.8 274 13.9
2008-06-26 07:32:06 51°15.428 2°48.888 271.5 11.8 274 13.8
2008-06-26 07:32:11 51°15.429 2°48.862 271.9 11.7 272 13.6
2008-06-26 07:32:16 51°15.429 2°48.837 271.2 11.7 272 13.5
2008-06-26 07:32:21 51°15.429 2°48.811 270.3 11.7 271 13.4
2008-06-26 07:32:26 51°15.43 2°48.785 269.5 11.7 270 13.2
2008-06-26 07:32:31 51°15.43 2°48.759 269.2 11.6 270 13.2
2008-06-26 07:32:36 51°15.43 2°48.733 268.5 11.6 270 13.1
2008-06-26 07:32:41 51°15.43 2°48.708 268.3 11.6 270 12.8
2008-06-26 07:32:46 51°15.429 2°48.682 268.5 11.6 269 12.6
2008-06-26 07:32:51 51°15.429 2°48.656 268.1 11.6 269 12.5
2008-06-26 07:32:56 51°15.429 2°48.631 267.8 11.6 269 12.4
2008-06-26 07:33:01 51°15.429 2°48.605 267.4 11.6 270 12.3
2008-06-26 07:33:06 51°15.429 2°48.579 267.8 11.6 268 12.2
2008-06-26 07:33:11 51°15.429 2°48.554 267.5 11.6 269 12.1
2008-06-26 07:33:16 51°15.428 2°48.528 267.3 11.5 269 12
2008-06-26 07:33:21 51°15.428 2°48.503 267.3 11.6 270 12
2008-06-26 07:33:26 51°15.428 2°48.477 267.7 11.6 269 11.9
2008-06-26 07:33:31 51°15.428 2°48.451 267.8 11.6 272 11.8
2008-06-26 07:33:36 51°15.429 2°48.426 268.9 11.6 271 11.7
2008-06-26 07:33:41 51°15.429 2°48.4 269.9 11.6 272 11.8
2008-06-26 07:33:46 51°15.43 2°48.374 270.4 11.6 272 11.6
2008-06-26 07:33:51 51°15.43 2°48.349 270.4 11.6 272 11.7
2008-06-26 07:33:56 51°15.431 2°48.323 270.7 11.6 273 11.5
2008-06-26 07:34:01 51°15.432 2°48.297 270.5 11.7 272 11.5
2008-06-26 07:34:06 51°15.432 2°48.271 270.7 11.7 272 11.5
2008-06-26 07:34:11 51°15.433 2°48.246 270.9 11.7 272 11.5
2008-06-26 07:34:16 51°15.433 2°48.22 270.6 11.6 270 11.4
2008-06-26 07:34:21 51°15.433 2°48.194 269.7 11.6 270 11.5
2008-06-26 07:34:26 51°15.433 2°48.168 268.6 11.6 268 11.5
2008-06-26 07:34:31 51°15.432 2°48.143 267.3 11.6 268 11.5
2008-06-26 07:34:36 51°15.431 2°48.117 266.4 11.7 267 11.6
2008-06-26 07:34:41 51°15.43 2°48.092 266.1 11.6 266 11.5
2008-06-26 07:34:46 51°15.429 2°48.066 265.4 11.7 266 11.6
2008-06-26 07:34:51 51°15.429 2°48.04 265.2 11.6 267 11.6
2008-06-26 07:34:56 51°15.428 2°48.015 265.4 11.6 266 11.6
2008-06-26 07:35:01 51°15.427 2°47.989 264.8 11.7 266 11.6
2008-06-26 07:35:06 51°15.425 2°47.963 264.7 11.7 265 11.6
2008-06-26 07:35:11 51°15.424 2°47.937 264.4 11.7 266 11.5
2008-06-26 07:35:16 51°15.423 2°47.912 264.1 11.7 267 11.7
2008-06-26 07:35:21 51°15.422 2°47.886 264.9 11.7 268 11.6
2008-06-26 07:35:26 51°15.422 2°47.86 265.5 11.7 267 11.6
2008-06-26 07:35:31 51°15.421 2°47.834 265.9 11.7 269 11.6
2008-06-26 07:35:36 51°15.421 2°47.808 266.6 11.7 269 11.7
2008-06-26 07:35:41 51°15.42 2°47.782 267 11.8 269 11.8
2008-06-26 07:35:46 51°15.421 2°47.756 267.2 11.8 271 11.7
2008-06-26 07:35:51 51°15.421 2°47.73 268.5 11.8 271 11.8
2008-06-26 07:35:56 51°15.421 2°47.704 268.9 11.8 272 11.9
2008-06-26 07:36:01 51°15.422 2°47.678 269.9 11.8 272 11.9
2008-06-26 07:36:06 51°15.423 2°47.652 270.6 11.8 272 12
2008-06-26 07:36:11 51°15.423 2°47.626 271 11.8 273 12.1
2008-06-26 07:36:16 51°15.424 2°47.6 271.4 11.8 273 12.2
2008-06-26 07:36:21 51°15.425 2°47.574 271.6 11.8 273 12.2
2008-06-26 07:36:26 51°15.426 2°47.548 271.6 11.8 272 12.2
2008-06-26 07:36:31 51°15.426 2°47.522 271.5 11.8 272 12.5
2008-06-26 07:36:36 51°15.427 2°47.496 271.1 11.9 272 12.5
2008-06-26 07:36:41 51°15.427 2°47.469 270.7 11.8 271 12.5
2008-06-26 07:36:46 51°15.428 2°47.443 270.4 11.9 272 12.7
2008-06-26 07:36:51 51°15.428 2°47.417 270.6 11.9 272 12.8
2008-06-26 07:36:56 51°15.428 2°47.391 270.4 11.8 270 12.8
2008-06-26 07:37:01 51°15.428 2°47.365 269.5 11.8 270 12.9
2008-06-26 07:37:06 51°15.428 2°47.339 268.7 11.8 267 13
2008-06-26 07:37:11 51°15.427 2°47.313 267 11.8 268 13.1
2008-06-26 07:37:16 51°15.426 2°47.287 266.3 11.8 266 13
2008-06-26 07:37:21 51°15.425 2°47.261 265.4 11.8 267 13.2
2008-06-26 07:37:26 51°15.423 2°47.235 265 11.8 265 13.1
2008-06-26 07:37:31 51°15.422 2°47.209 264.5 11.8 266 13.2
2008-06-26 07:37:36 51°15.421 2°47.183 264.1 11.8 266 13.4
2008-06-26 07:37:41 51°15.42 2°47.157 264.3 11.8 266 13.3
2008-06-26 07:37:46 51°15.419 2°47.131 264.7 11.8 266 13.4
2008-06-26 07:37:51 51°15.418 2°47.105 265.1 11.8 268 13.6
2008-06-26 07:37:56 51°15.417 2°47.079 265.7 11.8 266 13.7
2008-06-26 07:38:01 51°15.416 2°47.053 265.2 11.8 267 13.9
2008-06-26 07:38:06 51°15.415 2°47.027 264.9 11.8 265 13.7
2008-06-26 07:38:11 51°15.414 2°47.001 264.8 11.8 266 13.9
2008-06-26 07:38:16 51°15.413 2°46.975 264.6 11.8 267 14.1
2008-06-26 07:38:21 51°15.411 2°46.949 264.7 11.8 266 14.2
2008-06-26 07:38:26 51°15.411 2°46.923 265 11.8 267 14.3
2008-06-26 07:38:31 51°15.409 2°46.897 265.2 11.8 266 14.2
2008-06-26 07:38:36 51°15.408 2°46.87 264.6 11.8 266 14.4
2008-06-26 07:38:41 51°15.407 2°46.844 264.6 11.8 266 14.5
2008-06-26 07:38:46 51°15.406 2°46.818 264.7 11.9 268 14.5
2008-06-26 07:38:51 51°15.406 2°46.792 265.1 11.8 267 14.6
2008-06-26 07:38:56 51°15.405 2°46.766 265.5 11.8 267 14.9
2008-06-26 07:39:01 51°15.404 2°46.74 265.3 11.8 267 14.8
2008-06-26 07:39:06 51°15.403 2°46.714 265.3 11.8 269 14.9
2008-06-26 07:39:11 51°15.403 2°46.688 266.6 11.8 268 15
2008-06-26 07:39:16 51°15.402 2°46.662 266.8 11.8 269 15.2
2008-06-26 07:39:21 51°15.403 2°46.636 267.2 11.8 269 15.1
2008-06-26 07:39:26 51°15.402 2°46.61 267.7 11.8 269 15.3
2008-06-26 07:39:31 51°15.402 2°46.584 267.7 11.8 270 15.4
2008-06-26 07:39:36 51°15.402 2°46.557 268.3 11.8 269 15.5
2008-06-26 07:39:41 51°15.402 2°46.532 268.2 11.8 270 15.6
2008-06-26 07:39:46 51°15.402 2°46.506 268.6 11.8 270 15.6
2008-06-26 07:39:51 51°15.402 2°46.479 268.5 11.8 270 15.7
2008-06-26 07:39:56 51°15.402 2°46.453 268.4 11.8 270 15.7
2008-06-26 07:40:01 51°15.402 2°46.427 268.3 11.8 269 15.8
2008-06-26 07:40:06 51°15.402 2°46.401 268.1 11.8 269 15.8
2008-06-26 07:40:11 51°15.402 2°46.375 267.8 11.8 270 15.9
2008-06-26 07:40:16 51°15.401 2°46.349 268.3 11.8 270 16
2008-06-26 07:40:21 51°15.402 2°46.323 267.9 11.8 270 16.1
2008-06-26 07:40:26 51°15.401 2°46.297 268 11.8 268 16.2
2008-06-26 07:40:31 51°15.4 2°46.271 267 11.8 267 16.1
2008-06-26 07:40:36 51°15.4 2°46.245 266.1 11.8 268 16.2
2008-06-26 07:40:41 51°15.399 2°46.219 266.3 11.8 268 16.2
2008-06-26 07:40:46 51°15.399 2°46.193 266 11.7 268 16.4
2008-06-26 07:40:51 51°15.398 2°46.167 265.9 11.7 266 16.3
2008-06-26 07:40:56 51°15.397 2°46.141 265.3 11.7 267 16.3
2008-06-26 07:41:01 51°15.396 2°46.115 265 11.7 267 16.4
2008-06-26 07:41:06 51°15.395 2°46.089 265 11.7 265 16.5
2008-06-26 07:41:11 51°15.394 2°46.064 264.4 11.7 268 16.6
2008-06-26 07:41:16 51°15.393 2°46.038 264.9 11.7 266 16.6
2008-06-26 07:41:21 51°15.392 2°46.012 264.8 11.8 266 16.7
2008-06-26 07:41:26 51°15.391 2°45.986 264.1 11.7 267 16.8
2008-06-26 07:41:31 51°15.39 2°45.96 264.9 11.7 266 16.9
2008-06-26 07:41:36 51°15.389 2°45.935 264.4 11.7 267 16.9
2008-06-26 07:41:41 51°15.388 2°45.909 264.9 11.7 266 17
2008-06-26 07:41:46 51°15.387 2°45.883 264.6 11.6 267 17.1
2008-06-26 07:41:51 51°15.386 2°45.857 265.1 11.7 267 17.2
2008-06-26 07:41:56 51°15.386 2°45.831 265.2 11.7 268 17.2
2008-06-26 07:42:01 51°15.385 2°45.806 265.5 11.6 267 17.2
2008-06-26 07:42:06 51°15.384 2°45.78 265.3 11.7 266 17.5
2008-06-26 07:42:11 51°15.383 2°45.754 264.8 11.7 267 17.5
2008-06-26 07:42:16 51°15.382 2°45.728 265.1 11.6 267 17.6
2008-06-26 07:42:21 51°15.381 2°45.703 265.2 11.7 268 17.6
2008-06-26 07:42:26 51°15.38 2°45.677 265.5 11.6 267 17.5
2008-06-26 07:42:31 51°15.379 2°45.651 265.3 11.6 267 17.5
2008-06-26 07:42:36 51°15.379 2°45.626 265.1 11.6 268 17.7
2008-06-26 07:42:41 51°15.378 2°45.6 265.7 11.6 266 17.9
2008-06-26 07:42:46 51°15.377 2°45.574 265.2 11.6 268 18.1
2008-06-26 07:42:51 51°15.376 2°45.549 265.5 11.6 267 18.2
2008-06-26 07:42:56 51°15.376 2°45.523 265.5 11.6 268 18.2
2008-06-26 07:43:01 51°15.375 2°45.498 265.6 11.6 267 18.3
2008-06-26 07:43:06 51°15.374 2°45.472 265.4 11.5 267 18.3
2008-06-26 07:43:11 51°15.373 2°45.447 265.3 11.6 267 18.5
2008-06-26 07:43:16 51°15.372 2°45.421 265.1 11.6 267 18.4
2008-06-26 07:43:21 51°15.371 2°45.396 264.7 11.6 266 18.6
2008-06-26 07:43:26 51°15.371 2°45.37 264.8 11.6 268 18.6
2008-06-26 07:43:31 51°15.37 2°45.344 265.5 11.6 267 18.7
2008-06-26 07:43:36 51°15.369 2°45.318 265.5 11.6 269 18.8
2008-06-26 07:43:41 51°15.369 2°45.293 266.2 11.6 267 18.9
2008-06-26 07:43:46 51°15.368 2°45.267 265.8 11.7 268 19.1
2008-06-26 07:43:51 51°15.367 2°45.242 265.6 11.6 267 19
2008-06-26 07:43:56 51°15.367 2°45.216 265.8 11.6 268 19.1
2008-06-26 07:44:01 51°15.366 2°45.19 265.7 11.7 268 19.2
2008-06-26 07:44:06 51°15.366 2°45.165 266 11.7 270 19.2
2008-06-26 07:44:11 51°15.366 2°45.139 267 11.7 269 19.1
2008-06-26 07:44:16 51°15.366 2°45.113 267.4 11.6 271 19.2
2008-06-26 07:44:21 51°15.366 2°45.087 268.1 11.7 269 19.3
2008-06-26 07:44:26 51°15.366 2°45.061 268.4 11.7 271 19.2
2008-06-26 07:44:32 51°15.366 2°45.03 268.8 11.7 269 19.3
2008-06-26 07:44:36 51°15.366 2°45.01 268.4 11.8 270 19.3
2008-06-26 07:44:41 51°15.366 2°44.984 268.4 11.7 271 19.2
2008-06-26 07:44:46 51°15.366 2°44.958 268.8 11.7 271 19.2
2008-06-26 07:44:51 51°15.366 2°44.932 269.2 11.7 270 19.2
2008-06-26 07:44:56 51°15.367 2°44.906 269.2 11.7 270 19
2008-06-26 07:45:01 51°15.367 2°44.88 268.9 11.6 270 19.1
2008-06-26 07:45:06 51°15.366 2°44.855 268.2 11.7 268 18.9
2008-06-26 07:45:11 51°15.366 2°44.829 267.1 11.7 269 18.8
2008-06-26 07:45:16 51°15.365 2°44.803 266.4 11.6 267 18.8
2008-06-26 07:45:21 51°15.364 2°44.777 265.9 11.7 267 18.7
2008-06-26 07:45:26 51°15.363 2°44.751 265.3 11.8 268 18.6
2008-06-26 07:45:31 51°15.363 2°44.726 265.5 11.7 268 18.4
2008-06-26 07:45:36 51°15.362 2°44.7 265.9 11.7 267 18.3
2008-06-26 07:45:41 51°15.361 2°44.674 265.5 11.8 267 18.3
2008-06-26 07:45:46 51°15.361 2°44.648 265.5 11.6 268 18.1
2008-06-26 07:45:51 51°15.36 2°44.623 265.9 11.7 267 18.1
2008-06-26 07:45:56 51°15.359 2°44.597 265.8 11.7 268 17.9
2008-06-26 07:46:01 51°15.359 2°44.571 265.8 11.6 268 17.8
2008-06-26 07:46:06 51°15.358 2°44.545 266.1 11.7 267 17.8
2008-06-26 07:46:11 51°15.357 2°44.519 265.5 11.6 267 17.5
2008-06-26 07:46:16 51°15.357 2°44.493 265.1 11.6 267 17.5
2008-06-26 07:46:21 51°15.356 2°44.468 264.8 11.6 267 17.3
2008-06-26 07:46:26 51°15.355 2°44.442 264.7 11.6 267 17.2
2008-06-26 07:46:32 51°15.354 2°44.411 265 11.6 267 17
2008-06-26 07:46:36 51°15.353 2°44.391 265.3 11.6 267 16.9
2008-06-26 07:46:41 51°15.353 2°44.365 265.3 11.6 267 16.6
2008-06-26 07:46:46 51°15.352 2°44.339 264.9 11.6 268 16.5
2008-06-26 07:46:51 51°15.352 2°44.313 265.2 11.6 268 16.4
2008-06-26 07:46:56 51°15.351 2°44.288 265.5 11.6 267 16.2
2008-06-26 07:47:01 51°15.35 2°44.262 265 11.6 268 16.1
2008-06-26 07:47:06 51°15.349 2°44.237 265.3 11.6 268 15.8
2008-06-26 07:47:11 51°15.349 2°44.211 265.7 11.6 268 15.7
2008-06-26 07:47:16 51°15.348 2°44.186 265.5 11.6 268 15.4
2008-06-26 07:47:21 51°15.348 2°44.16 265 11.6 267 15.3
2008-06-26 07:47:26 51°15.347 2°44.135 265 11.5 267 15.3
2008-06-26 07:47:31 51°15.346 2°44.109 265 11.6 268 15.1
2008-06-26 07:47:36 51°15.345 2°44.083 265.4 11.7 268 14.9
2008-06-26 07:47:41 51°15.345 2°44.058 265.5 11.6 268 14.9
2008-06-26 07:47:47 51°15.345 2°44.027 266 11.6 270 14
2008-06-26 07:47:51 51°15.345 2°44.007 266.8 11.6 270 13.6
2008-06-26 07:47:57 51°15.345 2°43.976 267.5 11.6 271 14.2
2008-06-26 07:48:01 51°15.346 2°43.955 267.8 11.6 271 14.4
2008-06-26 07:48:07 51°15.347 2°43.924 268.5 11.6 271 14.2
2008-06-26 07:48:11 51°15.347 2°43.904 268.4 11.6 271 14.2
2008-06-26 07:48:16 51°15.347 2°43.878 268.1 11.6 270 14.2
2008-06-26 07:48:21 51°15.347 2°43.853 267.8 11.6 271 14.1
2008-06-26 07:48:27 51°15.347 2°43.822 268.3 11.6 270 14.2
2008-06-26 07:48:31 51°15.347 2°43.801 268.4 11.7 270 14.1
2008-06-26 07:48:36 51°15.348 2°43.775 268.4 11.6 271 14.2
2008-06-26 07:48:41 51°15.348 2°43.749 268.5 11.6 270 14.1
2008-06-26 07:48:47 51°15.348 2°43.719 268.1 11.7 270 14
2008-06-26 07:48:51 51°15.347 2°43.698 267.8 11.6 267 14
2008-06-26 07:48:56 51°15.347 2°43.673 266.5 11.6 269 14.1
2008-06-26 07:49:01 51°15.346 2°43.647 266.3 11.6 268 14.1
2008-06-26 07:49:07 51°15.345 2°43.616 265.8 11.6 268 14
2008-06-26 07:49:11 51°15.344 2°43.596 265.6 11.7 267 14.1
2008-06-26 07:49:17 51°15.344 2°43.565 265.4 11.7 268 14.2
2008-06-26 07:49:21 51°15.343 2°43.544 265.4 11.6 267 14.3
2008-06-26 07:49:27 51°15.342 2°43.513 265.3 11.7 267 14.3
2008-06-26 07:49:31 51°15.341 2°43.492 265.3 11.8 267 14.4
2008-06-26 07:49:37 51°15.34 2°43.461 265.1 11.8 266 14.4
2008-06-26 07:49:41 51°15.339 2°43.44 264.8 11.8 268 14.6
2008-06-26 07:49:47 51°15.338 2°43.409 265.2 11.8 266 14.4
2008-06-26 07:49:51 51°15.337 2°43.388 265 11.9 268 14.4
2008-06-26 07:49:57 51°15.337 2°43.357 265 11.8 267 14.5
2008-06-26 07:50:01 51°15.336 2°43.336 265 11.8 268 14.5
2008-06-26 07:50:07 51°15.336 2°43.305 265.3 11.8 268 14.2
2008-06-26 07:50:11 51°15.335 2°43.284 265.8 11.8 267 13.3
2008-06-26 07:50:16 51°15.335 2°43.258 265.2 11.7 269 13
2008-06-26 07:50:21 51°15.334 2°43.232 266.1 11.7 269 13.9
2008-06-26 07:50:27 51°15.335 2°43.201 266.8 11.8 271 14.2
2008-06-26 07:50:31 51°15.334 2°43.18 267.7 11.8 269 14.3
2008-06-26 07:50:36 51°15.335 2°43.154 267.6 11.7 269 14.4
2008-06-26 07:50:41 51°15.334 2°43.128 267 11.7 269 14.3
2008-06-26 07:50:47 51°15.333 2°43.097 266.2 11.6 269 14.7
2008-06-26 07:50:51 51°15.333 2°43.077 266.3 11.6 267 14.4
2008-06-26 07:50:56 51°15.333 2°43.051 265.7 11.6 269 14.7
2008-06-26 07:51:01 51°15.331 2°43.025 265.8 11.7 267 14.6
2008-06-26 07:51:07 51°15.33 2°42.994 265.5 11.7 267 14.7
2008-06-26 07:51:11 51°15.33 2°42.974 265.3 11.7 267 14.5
2008-06-26 07:51:16 51°15.329 2°42.948 265.2 11.7 268 14.7
2008-06-26 07:51:21 51°15.329 2°42.922 265.5 11.7 268 13.1
2008-06-26 07:51:27 51°15.328 2°42.891 265.8 11.7 268 13.5
2008-06-26 07:51:31 51°15.327 2°42.87 266 11.7 267 13.5
2008-06-26 07:51:36 51°15.327 2°42.845 265.5 11.6 267 12.2
2008-06-26 07:51:41 51°15.326 2°42.819 265.1 11.7 267 13.7
2008-06-26 07:51:46 51°15.325 2°42.793 265 11.6 267 14
2008-06-26 07:51:51 51°15.324 2°42.768 264.9 11.7 266 14
2008-06-26 07:51:56 51°15.323 2°42.742 264.6 11.7 268 13.4
2008-06-26 07:52:01 51°15.322 2°42.716 264.8 11.7 267 12.5
2008-06-26 07:52:07 51°15.322 2°42.685 265.2 11.7 268 13.3
2008-06-26 07:52:11 51°15.321 2°42.664 265.9 11.7 267 13.2
2008-06-26 07:52:16 51°15.321 2°42.638 265.5 11.8 268 12.5
2008-06-26 07:52:21 51°15.32 2°42.612 265.5 11.7 268 12.8
2008-06-26 07:52:27 51°15.32 2°42.581 266.3 11.7 270 13.2
2008-06-26 07:52:31 51°15.32 2°42.56 267.3 11.8 269 13.1
2008-06-26 07:52:36 51°15.32 2°42.534 267.7 11.8 271 13.1
2008-06-26 07:52:41 51°15.321 2°42.508 268.5 11.8 270 12.9
2008-06-26 07:52:46 51°15.321 2°42.482 268.6 11.8 270 12.2
2008-06-26 07:52:51 51°15.321 2°42.456 267.9 11.8 272 11.3
2008-06-26 07:52:56 51°15.322 2°42.43 269.2 11.8 274 12.5
2008-06-26 07:53:01 51°15.323 2°42.404 271.2 11.8 273 13
2008-06-26 07:53:07 51°15.325 2°42.373 271.5 11.9 276 13
2008-06-26 07:53:11 51°15.326 2°42.352 272.5 11.8 275 12.7
2008-06-26 07:53:16 51°15.328 2°42.326 272.9 11.9 277 12.7
2008-06-26 07:53:21 51°15.331 2°42.3 274.1 11.8 279 12
2008-06-26 07:53:27 51°15.333 2°42.269 276.2 11.8 279 11.6
2008-06-26 07:53:31 51°15.336 2°42.249 277 11.8 282 10.5
2008-06-26 07:53:37 51°15.341 2°42.218 278.6 11.8 282 11.7
2008-06-26 07:53:41 51°15.343 2°42.198 279.4 11.8 282 12.4
2008-06-26 07:53:47 51°15.348 2°42.166 279.5 11.9 281 12.3
2008-06-26 07:53:51 51°15.35 2°42.146 279.3 11.9 282 11.3
2008-06-26 07:53:56 51°15.354 2°42.12 279.4 11.8 283 11.8
2008-06-26 07:54:01 51°15.357 2°42.095 279.7 11.8 282 11.6
2008-06-26 07:54:07 51°15.361 2°42.064 279.9 11.9 282 11.7
2008-06-26 07:54:11 51°15.365 2°42.044 279.7 11.9 284 11.6
2008-06-26 07:54:16 51°15.368 2°42.018 280.3 11.9 284 11.5
2008-06-26 07:54:21 51°15.373 2°41.993 281.5 11.8 285 11.1
2008-06-26 07:54:27 51°15.378 2°41.963 282.7 11.9 285 11.3
2008-06-26 07:54:31 51°15.382 2°41.943 282.8 12 287 11.4
2008-06-26 07:54:37 51°15.387 2°41.912 283.3 11.9 286 11.1
2008-06-26 07:54:41 51°15.391 2°41.892 283.9 11.9 288 10.9
2008-06-26 07:54:47 51°15.398 2°41.862 284.9 12 289 11.2
2008-06-26 07:54:51 51°15.402 2°41.842 285.9 12 289 11.4
2008-06-26 07:54:56 51°15.407 2°41.817 286.4 12 289 11.5
2008-06-26 07:55:01 51°15.413 2°41.792 286.6 12.1 289 11.6
2008-06-26 07:55:07 51°15.42 2°41.762 286.9 12.1 291 11.6
2008-06-26 07:55:11 51°15.425 2°41.742 288.2 12 290 11.7
2008-06-26 07:55:17 51°15.432 2°41.712 288.5 12.1 292 11.6
2008-06-26 07:55:21 51°15.437 2°41.692 289.2 12.1 292 11.7
2008-06-26 07:55:27 51°15.444 2°41.662 289.8 12.1 292 11.6
2008-06-26 07:55:31 51°15.45 2°41.643 289.4 12.1 292 11.8
2008-06-26 07:55:37 51°15.457 2°41.613 289.2 12 292 11.7
2008-06-26 07:55:41 51°15.462 2°41.593 288.9 12.1 292 11.8
2008-06-26 07:55:46 51°15.467 2°41.568 288.9 12 291 11.5
2008-06-26 07:55:53 51°15.476 2°41.533 288.5 12 290 11.8
2008-06-26 07:55:57 51°15.481 2°41.514 288.5 12.1 292 11.7
2008-06-26 07:56:01 51°15.485 2°41.494 288.8 12 291 11.6
2008-06-26 07:56:07 51°15.493 2°41.465 289 12 294 11.5
2008-06-26 07:56:11 51°15.498 2°41.445 290.1 12 291 11.8
2008-06-26 07:56:17 51°15.506 2°41.415 289.5 12 293 11.4
2008-06-26 07:56:21 51°15.51 2°41.395 289.7 12 291 11.5
2008-06-26 07:56:27 51°15.518 2°41.366 289.5 12 292 11.7
2008-06-26 07:56:31 51°15.523 2°41.346 289.1 12 292 11.8
2008-06-26 07:56:37 51°15.53 2°41.316 289.5 12 292 11.7
2008-06-26 07:56:41 51°15.535 2°41.297 289.6 12 292 11.9
2008-06-26 07:56:47 51°15.542 2°41.267 289.3 12 292 11.9
2008-06-26 07:56:51 51°15.547 2°41.247 289.2 12 292 12
2008-06-26 07:56:57 51°15.555 2°41.217 289.1 12.1 292 12.4
2008-06-26 07:57:01 51°15.56 2°41.198 289.1 12 292 12.1
2008-06-26 07:57:07 51°15.567 2°41.168 289.5 12 292 12.3
2008-06-26 07:57:11 51°15.572 2°41.149 289.3 12 292 12.3
2008-06-26 07:57:17 51°15.58 2°41.119 289.5 12 293 12.4
2008-06-26 07:57:21 51°15.585 2°41.099 289.7 12 291 12.8
2008-06-26 07:57:27 51°15.593 2°41.07 289.5 12 294 12.8
2008-06-26 07:57:31 51°15.598 2°41.051 290.7 12 294 12.8
2008-06-26 07:57:37 51°15.607 2°41.022 291.4 12.1 296 12.8
2008-06-26 07:57:41 51°15.613 2°41.003 292.4 12.1 296 12.6
2008-06-26 07:57:47 51°15.621 2°40.974 293.1 12 297 13.3
2008-06-26 07:57:51 51°15.628 2°40.955 293.6 12.1 297 13.4
2008-06-26 07:57:56 51°15.635 2°40.931 294 12.1 297 13.1
2008-06-26 07:58:01 51°15.643 2°40.907 294.3 12.1 296 13.2
2008-06-26 07:58:07 51°15.652 2°40.878 294 12.1 296 13.8
2008-06-26 07:58:13 51°15.661 2°40.849 293.8 12.1 296 13.6
2008-06-26 07:58:17 51°15.667 2°40.83 293.8 12.1 296 14.5
2008-06-26 07:58:21 51°15.673 2°40.811 293.6 12.1 297 14.3
2008-06-26 07:58:27 51°15.682 2°40.782 293.9 12.1 297 14.5
2008-06-26 07:58:31 51°15.688 2°40.763 294.2 12.1 297 14.8
2008-06-26 07:58:37 51°15.698 2°40.735 294.8 12.2 298 15.1
2008-06-26 07:58:41 51°15.705 2°40.716 295.6 12.1 299 15.1
2008-06-26 07:58:47 51°15.715 2°40.689 296.2 12.2 300 15.4
2008-06-26 07:58:51 51°15.721 2°40.67 296.4 12.1 300 15.2
2008-06-26 07:58:57 51°15.731 2°40.642 296.7 12.1 298 15.8
2008-06-26 07:59:01 51°15.738 2°40.623 296.2 12.1 299 16
2008-06-26 07:59:07 51°15.748 2°40.595 296.5 12.2 300 16.3
2008-06-26 07:59:11 51°15.755 2°40.577 297.3 12.2 301 16.7
2008-06-26 07:59:17 51°15.765 2°40.549 298.6 12.2 301 17
2008-06-26 07:59:21 51°15.772 2°40.531 298.4 12.2 302 17.3
2008-06-26 07:59:27 51°15.783 2°40.504 299 12.2 302 17.5
2008-06-26 07:59:31 51°15.79 2°40.485 299.7 12.2 302 17.8
2008-06-26 07:59:37 51°15.801 2°40.458 299.4 12.2 302 18.1
2008-06-26 07:59:41 51°15.807 2°40.439 298.9 12.2 301 18.2
2008-06-26 07:59:47 51°15.818 2°40.412 298.6 12.2 301 18.5
2008-06-26 07:59:51 51°15.825 2°40.393 298.2 12.1 300 18.7
2008-06-26 07:59:57 51°15.835 2°40.365 297.7 12.2 300 19
2008-06-26 08:00:01 51°15.841 2°40.347 297.4 12.1 299 19
2008-06-26 08:00:07 51°15.852 2°40.319 296.9 12.1 300 19.3
2008-06-26 08:00:13 51°15.862 2°40.291 297.1 12.1 300 19.4
2008-06-26 08:00:17 51°15.868 2°40.272 297.5 12.1 301 19.7
2008-06-26 08:00:21 51°15.875 2°40.254 297.8 12.2 299 19.9
2008-06-26 08:00:27 51°15.885 2°40.226 297.2 12.2 301 19.8
2008-06-26 08:00:31 51°15.892 2°40.207 297.5 12.1 300 20
2008-06-26 08:00:37 51°15.902 2°40.179 297.3 12.1 299 20.2
2008-06-26 08:00:41 51°15.909 2°40.161 296.7 12.1 299 20.2
2008-06-26 08:00:47 51°15.918 2°40.132 295.6 12.1 297 20.4
2008-06-26 08:00:51 51°15.924 2°40.113 294.6 12 298 20.5
2008-06-26 08:00:57 51°15.933 2°40.085 294.4 12 296 20.7
2008-06-26 08:01:01 51°15.939 2°40.066 293.5 12 298 20.7
2008-06-26 08:01:07 51°15.948 2°40.038 294.1 12.1 297 20.8
2008-06-26 08:01:11 51°15.954 2°40.019 294.6 12 297 20.8
2008-06-26 08:01:17 51°15.963 2°39.99 294.3 12.1 297 21
2008-06-26 08:01:21 51°15.969 2°39.971 294 12.1 296 21
2008-06-26 08:01:27 51°15.978 2°39.942 293.9 12.1 297 21.1
2008-06-26 08:01:31 51°15.984 2°39.923 294.1 12 297 21
2008-06-26 08:01:37 51°15.993 2°39.895 294.2 12 297 20.9
2008-06-26 08:01:41 51°15.999 2°39.876 294.1 12.1 298 20.9
2008-06-26 08:01:47 51°16.009 2°39.848 294.9 12.1 298 21.1
2008-06-26 08:01:51 51°16.016 2°39.829 295.7 12.1 300 20.9
2008-06-26 08:01:57 51°16.026 2°39.801 296.6 12.1 300 21
2008-06-26 08:02:01 51°16.032 2°39.783 297 12 300 20.8
2008-06-26 08:02:07 51°16.042 2°39.755 297.5 12 300 21
2008-06-26 08:02:11 51°16.049 2°39.737 297.4 12 300 20.9
2008-06-26 08:02:17 51°16.058 2°39.708 297.1 12 297 21
2008-06-26 08:02:21 51°16.064 2°39.689 295.8 12 298 20.9
2008-06-26 08:02:27 51°16.073 2°39.661 295.3 12 297 20.9
2008-06-26 08:02:33 51°16.083 2°39.632 294.6 12 297 20.7
2008-06-26 08:02:37 51°16.088 2°39.613 294.5 12 296 20.7
2008-06-26 08:02:41 51°16.094 2°39.594 294.1 12 297 20.6
2008-06-26 08:02:47 51°16.103 2°39.566 294.2 12 296 20.5
2008-06-26 08:02:51 51°16.109 2°39.547 294.1 11.9 297 20.7
2008-06-26 08:02:57 51°16.119 2°39.517 294.3 12 298 20.5
2008-06-26 08:03:01 51°16.125 2°39.499 294.8 12.1 298 20.2
2008-06-26 08:03:07 51°16.134 2°39.471 295.5 12.1 299 20.2
2008-06-26 08:03:11 51°16.141 2°39.453 296.4 12.1 299 20.1
2008-06-26 08:03:17 51°16.151 2°39.425 296.8 12.1 300 19.6
2008-06-26 08:03:21 51°16.157 2°39.406 297.4 12.1 299 19.6
2008-06-26 08:03:27 51°16.167 2°39.378 297.1 12 299 19.3
2008-06-26 08:03:31 51°16.173 2°39.36 296.9 12 299 19.3
2008-06-26 08:03:37 51°16.183 2°39.332 297 12.1 299 19.3
2008-06-26 08:03:41 51°16.19 2°39.313 296.8 12.1 299 18.7
2008-06-26 08:03:47 51°16.199 2°39.285 296.9 12 299 18.6
2008-06-26 08:03:51 51°16.206 2°39.267 296.9 12 299 18.5
2008-06-26 08:03:57 51°16.215 2°39.239 296.8 12.1 299 18.2
2008-06-26 08:04:01 51°16.222 2°39.22 296.8 12 297 17.8
2008-06-26 08:04:07 51°16.231 2°39.192 295.9 12 297 17.7
2008-06-26 08:04:11 51°16.237 2°39.173 295.1 11.9 297 17.2
2008-06-26 08:04:17 51°16.246 2°39.144 294.6 11.9 297 16.8
2008-06-26 08:04:21 51°16.251 2°39.125 294.3 12 295 16.2
2008-06-26 08:04:27 51°16.261 2°39.096 293.9 12 298 16.2
2008-06-26 08:04:33 51°16.27 2°39.068 294.7 12 296 15.7
2008-06-26 08:04:37 51°16.276 2°39.049 294.9 12.1 298 15.3
2008-06-26 08:04:41 51°16.282 2°39.03 295.7 12.1 298 14.7
2008-06-26 08:04:47 51°16.292 2°39.002 296.3 12 299 14.6
2008-06-26 08:04:51 51°16.298 2°38.984 296.6 12 298 14.3
2008-06-26 08:04:57 51°16.307 2°38.955 296.4 12 298 14
2008-06-26 08:05:01 51°16.313 2°38.936 295.8 11.9 296 13.5
2008-06-26 08:05:07 51°16.322 2°38.908 294.8 12 296 13.6
2008-06-26 08:05:11 51°16.328 2°38.888 294 12 296 13.2
2008-06-26 08:05:17 51°16.337 2°38.86 293.9 11.9 296 12.9
2008-06-26 08:05:21 51°16.342 2°38.841 293.9 12 295 12.7
2008-06-26 08:05:27 51°16.351 2°38.812 294 11.9 296 12.5
2008-06-26 08:05:31 51°16.357 2°38.793 294 12 296 12.3
2008-06-26 08:05:37 51°16.366 2°38.765 293.9 11.9 297 12.1
2008-06-26 08:05:41 51°16.372 2°38.746 294.7 11.9 296 12
2008-06-26 08:05:47 51°16.381 2°38.718 294.2 12 298 11.8
2008-06-26 08:05:51 51°16.387 2°38.699 295 11.9 297 11.2
2008-06-26 08:05:57 51°16.396 2°38.671 295.8 11.9 297 11.3
2008-06-26 08:06:01 51°16.402 2°38.652 295.4 12 296 11.1
2008-06-26 08:06:07 51°16.411 2°38.623 294.5 11.9 297 10.9
2008-06-26 08:06:11 51°16.416 2°38.604 294.6 11.9 295 10.7
2008-06-26 08:06:17 51°16.425 2°38.576 293.9 12 296 10.3
2008-06-26 08:06:21 51°16.431 2°38.557 293.2 11.9 296 10.2
2008-06-26 08:06:27 51°16.44 2°38.528 294 12 296 10.3
2008-06-26 08:06:31 51°16.446 2°38.509 294.2 11.9 297 10
2008-06-26 08:06:37 51°16.454 2°38.481 294.3 11.9 296 10.1
2008-06-26 08:06:41 51°16.46 2°38.462 293.9 12 296 10
2008-06-26 08:06:47 51°16.469 2°38.433 293.9 11.9 296 9.9
2008-06-26 08:06:51 51°16.474 2°38.414 294.4 12 295 9.5
2008-06-26 08:06:57 51°16.483 2°38.386 293.4 11.9 297 9.7
2008-06-26 08:07:01 51°16.489 2°38.366 293.8 12 295 9.7
2008-06-26 08:07:07 51°16.498 2°38.338 293.4 12 297 9.3
2008-06-26 08:07:11 51°16.504 2°38.319 293.9 12 296 9.3
2008-06-26 08:07:17 51°16.513 2°38.291 294.4 12 296 9.6
2008-06-26 08:07:21 51°16.519 2°38.271 293.9 12 296 9.3
2008-06-26 08:07:27 51°16.527 2°38.243 294 12 296 9.6
2008-06-26 08:07:31 51°16.533 2°38.224 294.1 12 297 9.5
2008-06-26 08:07:37 51°16.542 2°38.196 294.2 12 296 9.3
2008-06-26 08:07:41 51°16.548 2°38.176 294 12.1 296 9.7
2008-06-26 08:07:47 51°16.557 2°38.148 293.9 12.1 296 9.5
2008-06-26 08:07:51 51°16.563 2°38.129 294.1 12.1 297 8.9
2008-06-26 08:07:57 51°16.572 2°38.1 293.9 12.2 297 11.3
2008-06-26 08:08:01 51°16.578 2°38.081 294.6 12.2 297 12.6
2008-06-26 08:08:07 51°16.587 2°38.052 294.8 12.3 296 12.7
2008-06-26 08:08:11 51°16.593 2°38.032 294.5 12.3 297 14
2008-06-26 08:08:17 51°16.603 2°38.004 294.6 12.3 297 16
2008-06-26 08:08:21 51°16.609 2°37.984 294.7 12.2 298 17.5
2008-06-26 08:08:27 51°16.618 2°37.956 294.9 12.2 297 18.5
2008-06-26 08:08:31 51°16.625 2°37.937 295 12.2 298 19.5
2008-06-26 08:08:37 51°16.634 2°37.908 294.8 12.1 298 20.5
2008-06-26 08:08:41 51°16.641 2°37.889 295.1 12.1 298 21.2
2008-06-26 08:08:47 51°16.65 2°37.86 295.2 12.1 298 22.3
2008-06-26 08:08:51 51°16.656 2°37.842 294.9 12.1 298 23.2
2008-06-26 08:08:57 51°16.666 2°37.813 295.2 12.1 299 23.9
2008-06-26 08:09:01 51°16.673 2°37.794 295.3 12.1 298 24.4
2008-06-26 08:09:07 51°16.682 2°37.766 295.3 12.1 299 24.7
2008-06-26 08:09:11 51°16.689 2°37.748 295.3 12 299 25.5
2008-06-26 08:09:17 51°16.698 2°37.72 295.3 12 299 25.7
2008-06-26 08:09:21 51°16.705 2°37.701 295.3 12 300 25.9
2008-06-26 08:09:27 51°16.715 2°37.673 295.5 12 299 26.2
2008-06-26 08:09:33 51°16.725 2°37.646 295.5 12 300 26.5
2008-06-26 08:09:37 51°16.732 2°37.627 295.8 12 299 26.8
2008-06-26 08:09:41 51°16.738 2°37.608 295.5 12 299 26.9
2008-06-26 08:09:47 51°16.748 2°37.581 295.2 11.9 299 26.8
2008-06-26 08:09:51 51°16.754 2°37.562 295 12 299 27.1
2008-06-26 08:09:57 51°16.764 2°37.534 294.9 12 300 26.9
2008-06-26 08:10:01 51°16.771 2°37.517 295.4 11.9 301 26.8
2008-06-26 08:10:07 51°16.781 2°37.489 296.4 11.9 300 26.9
2008-06-26 08:10:11 51°16.788 2°37.47 296.5 11.9 300 27.1
2008-06-26 08:10:17 51°16.797 2°37.443 296 11.9 299 27.3
2008-06-26 08:10:21 51°16.804 2°37.424 295.4 12 300 27.5
2008-06-26 08:10:27 51°16.814 2°37.397 295.4 12 300 27.2
2008-06-26 08:10:32 51°16.822 2°37.373 295.4 12 300 27.3
2008-06-26 08:10:37 51°16.83 2°37.35 295.6 12 299 27.6
2008-06-26 08:10:41 51°16.836 2°37.332 295.5 12 299 27.8
2008-06-26 08:10:47 51°16.846 2°37.304 295.2 11.9 298 28.1
2008-06-26 08:10:51 51°16.852 2°37.286 294.9 11.9 299 28.6
2008-06-26 08:10:57 51°16.862 2°37.258 294.5 11.9 298 28.8
2008-06-26 08:11:01 51°16.868 2°37.239 294.3 11.9 299 28.6
2008-06-26 08:11:07 51°16.878 2°37.212 294.7 11.9 298 28.5
2008-06-26 08:11:11 51°16.884 2°37.193 294.6 11.9 299 28.5
2008-06-26 08:11:17 51°16.893 2°37.165 295 11.9 298 28.3
2008-06-26 08:11:21 51°16.899 2°37.146 294.8 12 299 28.3
2008-06-26 08:11:27 51°16.909 2°37.119 295.2 11.9 299 28.2
2008-06-26 08:11:31 51°16.915 2°37.1 295.2 11.9 299 28.2
2008-06-26 08:11:37 51°16.924 2°37.072 295.5 11.9 298 28.4
2008-06-26 08:11:41 51°16.931 2°37.054 295.3 12 298 28.5
2008-06-26 08:11:47 51°16.94 2°37.025 294.8 12 298 28.7
2008-06-26 08:11:51 51°16.946 2°37.007 294.8 12 298 28.6
2008-06-26 08:11:57 51°16.956 2°36.978 294.8 12.1 298 28.8
2008-06-26 08:12:01 51°16.962 2°36.96 295 12.1 298 28.7
2008-06-26 08:12:07 51°16.971 2°36.931 295.1 12 298 28.4
2008-06-26 08:12:11 51°16.978 2°36.913 295.3 12.1 299 28.2
2008-06-26 08:12:17 51°16.987 2°36.885 295.4 12 299 28.2
2008-06-26 08:12:21 51°16.994 2°36.866 295.3 12 299 27.9
2008-06-26 08:12:27 51°17.004 2°36.839 295.3 12 299 27.7
2008-06-26 08:12:31 51°17.01 2°36.82 295.5 12 299 27.3
2008-06-26 08:12:37 51°17.02 2°36.792 295.3 12 299 27.3
2008-06-26 08:12:41 51°17.026 2°36.773 295.1 12 298 27.2
2008-06-26 08:12:47 51°17.035 2°36.745 294.7 12 298 27.3
2008-06-26 08:12:51 51°17.042 2°36.726 294.6 12.1 298 27.3
2008-06-26 08:12:57 51°17.051 2°36.698 294.7 12 299 27.4
2008-06-26 08:13:01 51°17.058 2°36.679 295 12 298 27.5
2008-06-26 08:13:07 51°17.067 2°36.651 295.1 12 299 27.2
2008-06-26 08:13:11 51°17.073 2°36.633 295.3 12 298 27.5
2008-06-26 08:13:17 51°17.082 2°36.604 295.3 12 298 27.3
2008-06-26 08:13:21 51°17.089 2°36.586 294.9 12 298 27.1
2008-06-26 08:13:27 51°17.098 2°36.558 295.3 12 299 27.1
2008-06-26 08:13:31 51°17.105 2°36.539 296.3 12 298 26.9
2008-06-26 08:13:37 51°17.114 2°36.511 296 12 299 26.9
2008-06-26 08:13:41 51°17.121 2°36.493 296.2 12 299 26.9
2008-06-26 08:13:47 51°17.131 2°36.465 296.6 12.1 300 26.7
2008-06-26 08:13:51 51°17.137 2°36.446 297.5 12.1 299 26.7
2008-06-26 08:13:57 51°17.147 2°36.418 297.3 12.1 300 26.3
2008-06-26 08:14:01 51°17.154 2°36.4 297.4 12.1 299 26
2008-06-26 08:14:07 51°17.164 2°36.372 297.6 12.1 299 25.9
2008-06-26 08:14:11 51°17.17 2°36.353 297.2 12.1 298 26.1
2008-06-26 08:14:17 51°17.179 2°36.324 296.5 12.1 297 25.7
2008-06-26 08:14:21 51°17.185 2°36.305 295.7 12.1 297 25.5
2008-06-26 08:14:27 51°17.194 2°36.277 295.4 12 297 24.5
2008-06-26 08:14:31 51°17.201 2°36.258 295.1 12.1 297 24.1
2008-06-26 08:14:37 51°17.21 2°36.23 294.6 12 297 24
2008-06-26 08:14:41 51°17.216 2°36.211 294.7 12 297 24.1
2008-06-26 08:14:47 51°17.225 2°36.182 294.5 12.1 296 23.2
2008-06-26 08:14:51 51°17.231 2°36.163 294.3 12.1 297 22.7
2008-06-26 08:14:57 51°17.24 2°36.135 294.8 12.1 297 21.9
2008-06-26 08:15:01 51°17.246 2°36.116 294.9 12 297 21.6
2008-06-26 08:15:07 51°17.255 2°36.087 294.9 12 297 20.8
2008-06-26 08:15:12 51°17.262 2°36.063 295.3 12.1 296 20.7
2008-06-26 08:15:17 51°17.269 2°36.039 295 12 297 20.2
2008-06-26 08:15:21 51°17.275 2°36.02 294.7 12.1 297 19.5
2008-06-26 08:15:27 51°17.285 2°35.991 295 12.1 297 18.6
2008-06-26 08:15:31 51°17.291 2°35.972 295.4 12.1 299 18
2008-06-26 08:15:37 51°17.301 2°35.944 296.5 12.1 298 17.3
2008-06-26 08:15:41 51°17.307 2°35.925 296.6 12.2 299 17
2008-06-26 08:15:47 51°17.317 2°35.897 297.2 12.1 299 16.8
2008-06-26 08:15:51 51°17.323 2°35.878 297.4 12.2 299 16.2
2008-06-26 08:15:57 51°17.334 2°35.85 297.9 12.1 300 15.9
2008-06-26 08:16:01 51°17.34 2°35.831 298.1 12.1 299 15.3
2008-06-26 08:16:07 51°17.35 2°35.803 297.9 12.1 300 14.8
2008-06-26 08:16:13 51°17.36 2°35.775 297.9 12 299 14.4
2008-06-26 08:16:17 51°17.366 2°35.756 297.5 12.1 299 14.7
2008-06-26 08:16:21 51°17.372 2°35.738 297.2 12.1 299 14.1
2008-06-26 08:16:27 51°17.382 2°35.709 297.3 12 298 13.2
2008-06-26 08:16:32 51°17.39 2°35.686 296 12.1 298 12.8
2008-06-26 08:16:37 51°17.397 2°35.663 296.2 12 298 12.7
2008-06-26 08:16:42 51°17.405 2°35.639 296.2 12 297 12
2008-06-26 08:16:47 51°17.412 2°35.615 295.5 12.1 296 12.9
2008-06-26 08:16:52 51°17.419 2°35.591 294.7 12.1 296 12.9
2008-06-26 08:16:57 51°17.426 2°35.567 294.2 12 295 12.5
2008-06-26 08:17:01 51°17.432 2°35.547 293.9 12 295 11.9
2008-06-26 08:17:07 51°17.441 2°35.518 293.7 12 295 10.5
2008-06-26 08:17:11 51°17.446 2°35.499 293.7 12 296 11.9
2008-06-26 08:17:17 51°17.455 2°35.471 294 12.1 296 11.5
2008-06-26 08:17:21 51°17.461 2°35.452 294.2 12 296 10.5
2008-06-26 08:17:27 51°17.47 2°35.424 294.1 12 296 11.4
2008-06-26 08:17:31 51°17.476 2°35.405 294.2 12 297 12.3
2008-06-26 08:17:37 51°17.485 2°35.376 294.4 12.1 296 11.4
2008-06-26 08:17:42 51°17.492 2°35.352 294 12.1 296 11.2
2008-06-26 08:17:47 51°17.499 2°35.328 294 12 296 11.9
2008-06-26 08:17:52 51°17.507 2°35.304 294.1 12 297 12.4
2008-06-26 08:17:57 51°17.514 2°35.281 294.2 12.1 297 12.5
2008-06-26 08:18:02 51°17.522 2°35.257 294.6 12.1 297 13.6
2008-06-26 08:18:07 51°17.529 2°35.232 294.8 12.1 297 14.4
2008-06-26 08:18:12 51°17.537 2°35.208 294.6 12.1 297 14.5
2008-06-26 08:18:17 51°17.544 2°35.184 294.7 12.1 297 14.3
2008-06-26 08:18:21 51°17.55 2°35.165 294.6 12.1 296 13.9
2008-06-26 08:18:27 51°17.559 2°35.136 294.6 12.1 297 13.1
2008-06-26 08:18:31 51°17.566 2°35.118 294.8 12 298 11.8
2008-06-26 08:18:37 51°17.575 2°35.09 295.7 11.9 299 9.5
2008-06-26 08:18:41 51°17.582 2°35.072 296.5 12 299 12.4
2008-06-26 08:18:47 51°17.592 2°35.044 297 12.1 300 14.2
2008-06-26 08:18:51 51°17.598 2°35.025 297.6 12.2 299 14.6
2008-06-26 08:18:57 51°17.608 2°34.997 297.3 12.1 300 14.8
2008-06-26 08:19:01 51°17.615 2°34.979 297.6 12 298 15.3
2008-06-26 08:19:07 51°17.624 2°34.95 297 12 298 16
2008-06-26 08:19:11 51°17.63 2°34.931 296 12 297 16.9
2008-06-26 08:19:17 51°17.64 2°34.903 295.3 12 298 17
2008-06-26 08:19:21 51°17.646 2°34.884 295 12 298 17.1
2008-06-26 08:19:27 51°17.655 2°34.856 295.1 11.9 296 16.5
2008-06-26 08:19:31 51°17.661 2°34.837 294.6 12 298 14.8
2008-06-26 08:19:37 51°17.67 2°34.809 294.7 11.8 297 10.8
2008-06-26 08:19:41 51°17.676 2°34.791 294.6 11.7 298 11.3
2008-06-26 08:19:47 51°17.685 2°34.764 294.9 11.7 297 15.6
2008-06-26 08:19:51 51°17.69 2°34.745 294 11.8 295 17.6
2008-06-26 08:19:57 51°17.699 2°34.716 292.8 11.9 295 19
2008-06-26 08:20:01 51°17.704 2°34.697 292 11.9 294 20.1
2008-06-26 08:20:07 51°17.712 2°34.668 291.2 11.9 294 20.8
2008-06-26 08:20:11 51°17.718 2°34.649 291 11.8 294 21.5
2008-06-26 08:20:17 51°17.726 2°34.62 290.7 11.8 293 22.2
2008-06-26 08:20:21 51°17.731 2°34.601 290.3 11.8 293 22.8
2008-06-26 08:20:27 51°17.739 2°34.572 290.2 11.7 293 23.1
2008-06-26 08:20:33 51°17.746 2°34.543 289.8 11.7 292 23.5
2008-06-26 08:20:37 51°17.751 2°34.524 289.6 11.7 293 24.1
2008-06-26 08:20:42 51°17.757 2°34.5 289.7 11.7 292 24.3
2008-06-26 08:20:47 51°17.763 2°34.475 289.8 11.7 293 24.7
2008-06-26 08:20:52 51°17.769 2°34.452 289.6 11.6 292 24.9
2008-06-26 08:20:57 51°17.775 2°34.428 288.8 11.6 292 25.3
2008-06-26 08:21:01 51°17.779 2°34.408 288.9 11.4 291 25.1
2008-06-26 08:21:07 51°17.786 2°34.384 288.3 10.4 290 25.5
2008-06-26 08:21:11 51°17.79 2°34.368 287.4 9.2 291 25.8
2008-06-26 08:21:17 51°17.795 2°34.347 286.6 8.3 290 25.8
2008-06-26 08:21:21 51°17.797 2°34.333 284.7 7.7 288 26.2
2008-06-26 08:21:27 51°17.8 2°34.316 282.8 7 286 26.3
2008-06-26 08:21:31 51°17.802 2°34.305 279.2 6.3 282 26
2008-06-26 08:21:37 51°17.803 2°34.29 276 5.5 278 26.6
2008-06-26 08:21:41 51°17.803 2°34.282 272.4 4.8 275 26.3
2008-06-26 08:21:47 51°17.804 2°34.271 268.5 4.2 272 26.5
2008-06-26 08:21:51 51°17.803 2°34.264 264.1 3.5 269 26.9
2008-06-26 08:21:57 51°17.803 2°34.256 260.6 2.9 267 27
2008-06-26 08:22:01 51°17.802 2°34.252 256.5 2.4 264 27.1
2008-06-26 08:22:07 51°17.802 2°34.248 252.5 1.9 263 27.2
2008-06-26 08:22:11 51°17.802 2°34.245 249.4 1.4 258 27.3
2008-06-26 08:22:17 51°17.802 2°34.243 246.5 1 259 27.5
2008-06-26 08:22:21 51°17.802 2°34.242 241.3 0.6 259 27.4
2008-06-26 08:22:27 51°17.802 2°34.242 236.5 0.2 277 27.3
2008-06-26 08:22:31 51°17.802 2°34.242 231.4 0.1 325 27.3
2008-06-26 08:22:37 51°17.802 2°34.242 226.5 0.1 7 27.3
2008-06-26 08:22:41 51°17.802 2°34.243 221.5 0.2 59 27.3
2008-06-26 08:22:47 51°17.802 2°34.243 217 0.2 52 27.3
2008-06-26 08:22:52 51°17.803 2°34.244 212.6 0.2 64 27.3
2008-06-26 08:22:56 51°17.804 2°34.245 208.7 0.3 62 27.4
2008-06-26 08:23:01 51°17.804 2°34.246 204.9 0.4 74 27.3
2008-06-26 08:23:07 51°17.804 2°34.247 201.6 0.4 76 27.2
2008-06-26 08:23:11 51°17.805 2°34.248 198 0.5 70 27.1
2008-06-26 08:23:16 51°17.805 2°34.249 194.5 0.6 62 27.2
2008-06-26 08:23:21 51°17.805 2°34.251 190.8 0.7 65 27.1
2008-06-26 08:23:27 51°17.806 2°34.252 187.2 0.7 61 27
2008-06-26 08:23:32 51°17.807 2°34.254 183.5 0.7 65 27
2008-06-26 08:23:37 51°17.808 2°34.255 180.8 0.6 66 27
2008-06-26 08:23:42 51°17.808 2°34.256 176.5 0.6 71 27